West Stafford, Connecticut
Current Conditions -  °F | °C
As of 3:24 AM on Sunday 21 Dec 2014 (Local Time) from KIJD Reporting Station
Overcast Overcast  
Wind Chill: 28°   Ceiling: 2100
Heat Index: 33°   Visibility: 10mi
Dew Point: 27°   Wind: 6mph
Humidity: 78%   Direction: 30°NNE
Pressure: 30.26"   Gusts: NA
Location:  41.9885°N, 72.2592°W
Report Text: KIJD 210824Z AUTO 03005KT 10SM SCT014 OVC021 01/M03 A3026 RMK AO2 T00061028
Loading
Personal Weather Stations






























Interactive Weather Map New forecast layout! Learn more

10-Day Weather Forecast

Advertisements
Track Severe Weather on mobile